sensor_id;sensor_type;location;lat;lon;timestamp;pressure;altitude;pressure_sealevel;temperature;humidity
10946;BME280;5525;42.648;23.368;2022-12-11T00:01:10;92682.75;;;10.10;100.00
10946;BME280;5525;42.648;23.368;2022-12-11T00:03:41;92690.34;;;10.35;100.00
10946;BME280;5525;42.648;23.368;2022-12-11T00:06:10;92683.38;;;10.34;100.00
10946;BME280;5525;42.648;23.368;2022-12-11T00:08:41;92654.97;;;10.43;100.00
10946;BME280;5525;42.648;23.368;2022-12-11T00:11:11;92713.66;;;10.53;100.00
10946;BME280;5525;42.648;23.368;2022-12-11T00:13:39;92655.50;;;10.59;100.00
10946;BME280;5525;42.648;23.368;2022-12-11T00:16:08;92631.50;;;10.10;100.00
10946;BME280;5525;42.648;23.368;2022-12-11T00:18:38;92655.03;;;10.13;100.00
10946;BME280;5525;42.648;23.368;2022-12-11T00:21:11;92618.03;;;10.10;100.00
10946;BME280;5525;42.648;23.368;2022-12-11T00:23:45;92654.53;;;10.38;100.00
10946;BME280;5525;42.648;23.368;2022-12-11T00:26:14;92670.63;;;10.31;100.00
10946;BME280;5525;42.648;23.368;2022-12-11T00:28:42;92667.59;;;10.36;100.00
10946;BME280;5525;42.648;23.368;2022-12-11T00:31:13;92602.25;;;9.76;100.00
10946;BME280;5525;42.648;23.368;2022-12-11T00:33:51;92680.66;;;10.30;100.00
10946;BME280;5525;42.648;23.368;2022-12-11T00:36:24;92661.91;;;10.44;100.00
10946;BME280;5525;42.648;23.368;2022-12-11T00:38:55;92651.97;;;10.52;100.00
10946;BME280;5525;42.648;23.368;2022-12-11T00:41:24;92696.81;;;10.27;100.00
10946;BME280;5525;42.648;23.368;2022-12-11T00:43:52;92580.63;;;9.72;100.00
10946;BME280;5525;42.648;23.368;2022-12-11T00:46:20;92666.38;;;9.96;100.00
10946;BME280;5525;42.648;23.368;2022-12-11T00:48:49;92629.06;;;9.65;100.00
10946;BME280;5525;42.648;23.368;2022-12-11T00:51:18;92592.16;;;9.69;100.00
10946;BME280;5525;42.648;23.368;2022-12-11T00:53:47;92668.88;;;10.08;100.00
10946;BME280;5525;42.648;23.368;2022-12-11T00:56:21;92670.34;;;10.06;100.00
10946;BME280;5525;42.648;23.368;2022-12-11T00:58:51;92668.63;;;10.20;100.00
10946;BME280;5525;42.648;23.368;2022-12-11T01:01:23;92666.09;;;10.38;100.00
10946;BME280;5525;42.648;23.368;2022-12-11T01:04:00;92655.16;;;10.24;100.00
10946;BME280;5525;42.648;23.368;2022-12-11T01:06:34;92651.22;;;10.18;100.00
10946;BME280;5525;42.648;23.368;2022-12-11T01:09:05;92631.25;;;10.22;100.00
10946;BME280;5525;42.648;23.368;2022-12-11T01:11:52;92665.56;;;10.62;100.00
10946;BME280;5525;42.648;23.368;2022-12-11T01:14:28;92665.34;;;10.41;100.00
10946;BME280;5525;42.648;23.368;2022-12-11T01:17:01;92644.50;;;10.38;100.00
10946;BME280;5525;42.648;23.368;2022-12-11T01:19:29;92637.84;;;10.69;100.00
10946;BME280;5525;42.648;23.368;2022-12-11T01:22:03;92685.44;;;10.47;100.00
10946;BME280;5525;42.648;23.368;2022-12-11T01:24:39;92624.81;;;9.97;100.00
10946;BME280;5525;42.648;23.368;2022-12-11T01:27:39;92703.94;;;10.49;100.00
10946;BME280;5525;42.648;23.368;2022-12-11T01:30:09;92689.66;;;10.45;100.00
10946;BME280;5525;42.648;23.368;2022-12-11T01:32:38;92705.69;;;10.67;100.00
10946;BME280;5525;42.648;23.368;2022-12-11T01:35:08;92661.88;;;10.41;100.00
10946;BME280;5525;42.648;23.368;2022-12-11T01:37:39;92640.81;;;10.57;100.00
10946;BME280;5525;42.648;23.368;2022-12-11T01:40:13;92602.38;;;10.23;100.00
10946;BME280;5525;42.648;23.368;2022-12-11T01:42:58;92596.41;;;10.44;100.00
10946;BME280;5525;42.648;23.368;2022-12-11T01:45:42;92637.53;;;10.77;100.00
10946;BME280;5525;42.648;23.368;2022-12-11T01:48:15;92639.41;;;10.73;100.00
10946;BME280;5525;42.648;23.368;2022-12-11T01:50:53;92665.19;;;10.67;100.00
10946;BME280;5525;42.648;23.368;2022-12-11T01:53:26;92597.84;;;10.34;100.00
10946;BME280;5525;42.648;23.368;2022-12-11T01:56:02;92548.81;;;10.21;100.00
10946;BME280;5525;42.648;23.368;2022-12-11T01:58:39;92620.25;;;10.42;100.00
10946;BME280;5525;42.648;23.368;2022-12-11T02:01:11;92687.09;;;10.59;100.00
10946;BME280;5525;42.648;23.368;2022-12-11T02:03:43;92698.41;;;10.71;100.00
10946;BME280;5525;42.648;23.368;2022-12-11T02:06:29;92609.06;;;10.36;100.00
10946;BME280;5525;42.648;23.368;2022-12-11T02:08:59;92680.34;;;10.79;100.00
10946;BME280;5525;42.648;23.368;2022-12-11T02:11:33;92613.84;;;10.57;100.00
10946;BME280;5525;42.648;23.368;2022-12-11T02:14:12;92596.03;;;10.49;100.00
10946;BME280;5525;42.648;23.368;2022-12-11T02:16:45;92642.44;;;10.65;100.00
10946;BME280;5525;42.648;23.368;2022-12-11T02:19:27;92602.22;;;10.49;100.00
10946;BME280;5525;42.648;23.368;2022-12-11T02:21:59;92639.25;;;10.99;100.00
10946;BME280;5525;42.648;23.368;2022-12-11T02:24:45;92582.25;;;10.57;100.00
10946;BME280;5525;42.648;23.368;2022-12-11T02:27:25;92632.25;;;10.95;100.00
10946;BME280;5525;42.648;23.368;2022-12-11T02:30:00;92605.34;;;11.05;100.00
10946;BME280;5525;42.648;23.368;2022-12-11T02:32:37;92575.31;;;11.14;100.00
10946;BME280;5525;42.648;23.368;2022-12-11T02:35:10;92558.69;;;11.08;100.00
10946;BME280;5525;42.648;23.368;2022-12-11T02:37:42;92559.09;;;11.14;100.00
10946;BME280;5525;42.648;23.368;2022-12-11T02:40:15;92606.75;;;11.46;100.00
10946;BME280;5525;42.648;23.368;2022-12-11T02:42:47;92556.81;;;11.16;100.00
10946;BME280;5525;42.648;23.368;2022-12-11T02:45:21;92611.00;;;11.51;100.00
10946;BME280;5525;42.648;23.368;2022-12-11T02:47:52;92564.28;;;11.47;100.00
10946;BME280;5525;42.648;23.368;2022-12-11T02:50:21;92588.72;;;11.68;100.00
10946;BME280;5525;42.648;23.368;2022-12-11T02:52:51;92588.75;;;11.78;100.00
10946;BME280;5525;42.648;23.368;2022-12-11T02:55:25;92529.91;;;11.40;100.00
10946;BME280;5525;42.648;23.368;2022-12-11T02:58:01;92602.66;;;11.77;100.00
10946;BME280;5525;42.648;23.368;2022-12-11T03:00:35;92545.38;;;11.47;100.00
10946;BME280;5525;42.648;23.368;2022-12-11T03:03:07;92548.50;;;11.56;100.00
10946;BME280;5525;42.648;23.368;2022-12-11T03:05:36;92623.19;;;11.92;100.00
10946;BME280;5525;42.648;23.368;2022-12-11T03:08:05;92542.31;;;11.48;100.00
10946;BME280;5525;42.648;23.368;2022-12-11T03:10:37;92623.22;;;11.96;100.00
10946;BME280;5525;42.648;23.368;2022-12-11T03:13:05;92553.59;;;11.68;100.00
10946;BME280;5525;42.648;23.368;2022-12-11T03:15:47;92599.69;;;12.17;100.00
10946;BME280;5525;42.648;23.368;2022-12-11T03:18:24;92547.88;;;12.12;100.00
10946;BME280;5525;42.648;23.368;2022-12-11T03:21:03;92602.44;;;12.59;100.00
10946;BME280;5525;42.648;23.368;2022-12-11T03:23:36;92564.19;;;12.64;100.00
10946;BME280;5525;42.648;23.368;2022-12-11T03:26:10;92537.88;;;12.72;100.00
10946;BME280;5525;42.648;23.368;2022-12-11T03:28:42;92585.84;;;13.06;100.00
10946;BME280;5525;42.648;23.368;2022-12-11T03:31:19;92536.34;;;12.60;100.00
10946;BME280;5525;42.648;23.368;2022-12-11T03:33:49;92551.41;;;12.51;100.00
10946;BME280;5525;42.648;23.368;2022-12-11T03:36:24;92589.69;;;12.84;100.00
10946;BME280;5525;42.648;23.368;2022-12-11T03:38:57;92612.53;;;13.15;100.00
10946;BME280;5525;42.648;23.368;2022-12-11T03:41:28;92543.28;;;12.93;100.00
10946;BME280;5525;42.648;23.368;2022-12-11T03:43:58;92624.50;;;13.52;100.00
10946;BME280;5525;42.648;23.368;2022-12-11T03:46:32;92602.81;;;13.49;100.00
10946;BME280;5525;42.648;23.368;2022-12-11T03:49:08;92590.81;;;13.39;100.00
10946;BME280;5525;42.648;23.368;2022-12-11T03:51:39;92602.84;;;13.38;100.00
10946;BME280;5525;42.648;23.368;2022-12-11T03:54:12;92621.75;;;13.59;100.00
10946;BME280;5525;42.648;23.368;2022-12-11T03:56:43;92554.50;;;13.05;100.00
10946;BME280;5525;42.648;23.368;2022-12-11T03:59:13;92598.19;;;13.35;100.00
10946;BME280;5525;42.648;23.368;2022-12-11T04:01:47;92636.41;;;13.87;100.00
10946;BME280;5525;42.648;23.368;2022-12-11T04:04:19;92647.50;;;14.31;100.00
10946;BME280;5525;42.648;23.368;2022-12-11T04:06:48;92655.31;;;14.08;100.00
10946;BME280;5525;42.648;23.368;2022-12-11T04:09:16;92645.34;;;13.73;100.00
10946;BME280;5525;42.648;23.368;2022-12-11T04:11:45;92647.75;;;13.39;100.00
10946;BME280;5525;42.648;23.368;2022-12-11T04:14:16;92624.53;;;12.79;100.00
10946;BME280;5525;42.648;23.368;2022-12-11T04:17:04;92650.88;;;13.13;100.00
10946;BME280;5525;42.648;23.368;2022-12-11T04:19:33;92590.50;;;13.02;100.00
10946;BME280;5525;42.648;23.368;2022-12-11T04:22:17;92636.50;;;13.41;100.00
10946;BME280;5525;42.648;23.368;2022-12-11T04:25:08;92578.47;;;13.07;100.00
10946;BME280;5525;42.648;23.368;2022-12-11T04:27:36;92658.59;;;13.46;100.00
10946;BME280;5525;42.648;23.368;2022-12-11T04:30:18;92650.06;;;13.41;100.00
10946;BME280;5525;42.648;23.368;2022-12-11T04:32:49;92639.25;;;13.34;100.00
10946;BME280;5525;42.648;23.368;2022-12-11T04:35:18;92628.41;;;13.23;100.00
10946;BME280;5525;42.648;23.368;2022-12-11T04:37:47;92615.28;;;13.11;100.00
10946;BME280;5525;42.648;23.368;2022-12-11T04:40:17;92688.41;;;13.61;100.00
10946;BME280;5525;42.648;23.368;2022-12-11T04:42:47;92646.22;;;13.42;100.00
10946;BME280;5525;42.648;23.368;2022-12-11T04:45:19;92683.72;;;13.68;100.00
10946;BME280;5525;42.648;23.368;2022-12-11T04:47:49;92636.91;;;13.46;100.00
10946;BME280;5525;42.648;23.368;2022-12-11T04:50:17;92646.13;;;13.70;100.00
10946;BME280;5525;42.648;23.368;2022-12-11T04:52:47;92672.78;;;14.00;100.00
10946;BME280;5525;42.648;23.368;2022-12-11T04:55:14;92679.38;;;14.02;100.00
10946;BME280;5525;42.648;23.368;2022-12-11T04:57:46;92704.09;;;14.29;100.00
10946;BME280;5525;42.648;23.368;2022-12-11T05:00:16;92711.09;;;14.30;100.00
10946;BME280;5525;42.648;23.368;2022-12-11T05:02:44;92672.00;;;14.10;100.00
10946;BME280;5525;42.648;23.368;2022-12-11T05:05:17;92737.84;;;14.28;100.00
10946;BME280;5525;42.648;23.368;2022-12-11T05:07:46;92712.63;;;14.34;100.00
10946;BME280;5525;42.648;23.368;2022-12-11T05:10:14;92651.34;;;14.37;100.00
10946;BME280;5525;42.648;23.368;2022-12-11T05:12:41;92655.94;;;14.47;100.00
10946;BME280;5525;42.648;23.368;2022-12-11T05:15:09;92672.13;;;14.64;100.00
10946;BME280;5525;42.648;23.368;2022-12-11T05:17:37;92658.09;;;14.76;100.00
10946;BME280;5525;42.648;23.368;2022-12-11T05:20:07;92730.13;;;15.02;100.00
10946;BME280;5525;42.648;23.368;2022-12-11T05:22:37;92689.94;;;14.72;100.00
10946;BME280;5525;42.648;23.368;2022-12-11T05:25:06;92704.88;;;15.05;100.00
10946;BME280;5525;42.648;23.368;2022-12-11T05:27:35;92742.88;;;15.12;100.00
10946;BME280;5525;42.648;23.368;2022-12-11T05:30:06;92734.00;;;15.01;99.60
10946;BME280;5525;42.648;23.368;2022-12-11T05:32:34;92680.22;;;14.78;93.57
10946;BME280;5525;42.648;23.368;2022-12-11T05:35:04;92670.06;;;14.86;94.75
10946;BME280;5525;42.648;23.368;2022-12-11T05:37:33;92664.22;;;14.91;93.49
10946;BME280;5525;42.648;23.368;2022-12-11T05:40:09;92676.91;;;15.04;93.43
10946;BME280;5525;42.648;23.368;2022-12-11T05:42:39;92663.75;;;14.99;92.38
10946;BME280;5525;42.648;23.368;2022-12-11T05:45:09;92692.66;;;15.27;89.88
10946;BME280;5525;42.648;23.368;2022-12-11T05:47:37;92673.75;;;15.13;89.93
10946;BME280;5525;42.648;23.368;2022-12-11T05:50:07;92627.38;;;14.86;89.88
10946;BME280;5525;42.648;23.368;2022-12-11T05:52:39;92671.03;;;15.13;91.16
10946;BME280;5525;42.648;23.368;2022-12-11T05:55:09;92652.13;;;14.99;88.06
10946;BME280;5525;42.648;23.368;2022-12-11T05:57:38;92695.34;;;15.34;88.52
10946;BME280;5525;42.648;23.368;2022-12-11T06:00:08;92667.13;;;15.17;91.97
10946;BME280;5525;42.648;23.368;2022-12-11T06:02:36;92624.66;;;14.83;92.09
10946;BME280;5525;42.648;23.368;2022-12-11T06:05:06;92672.22;;;15.12;92.86
10946;BME280;5525;42.648;23.368;2022-12-11T06:07:34;92682.19;;;15.25;91.77
10946;BME280;5525;42.648;23.368;2022-12-11T06:10:02;92707.06;;;15.24;90.15
10946;BME280;5525;42.648;23.368;2022-12-11T06:12:35;92659.56;;;14.88;92.01
10946;BME280;5525;42.648;23.368;2022-12-11T06:15:05;92595.97;;;14.82;89.43
10946;BME280;5525;42.648;23.368;2022-12-11T06:17:33;92618.84;;;14.84;90.10
10946;BME280;5525;42.648;23.368;2022-12-11T06:20:01;92653.91;;;15.16;89.55
10946;BME280;5525;42.648;23.368;2022-12-11T06:22:33;92663.22;;;15.22;88.70
10946;BME280;5525;42.648;23.368;2022-12-11T06:25:06;92719.75;;;15.45;89.33
10946;BME280;5525;42.648;23.368;2022-12-11T06:27:37;92716.34;;;15.30;90.02
10946;BME280;5525;42.648;23.368;2022-12-11T06:30:06;92737.25;;;15.44;89.49
10946;BME280;5525;42.648;23.368;2022-12-11T06:32:37;92740.31;;;15.49;86.21
10946;BME280;5525;42.648;23.368;2022-12-11T06:35:06;92757.78;;;15.52;86.03
10946;BME280;5525;42.648;23.368;2022-12-11T06:37:38;92707.13;;;15.17;88.94
10946;BME280;5525;42.648;23.368;2022-12-11T06:40:10;92718.97;;;15.48;86.32
10946;BME280;5525;42.648;23.368;2022-12-11T06:42:40;92674.81;;;15.26;81.07
10946;BME280;5525;42.648;23.368;2022-12-11T06:45:09;92684.41;;;15.45;77.29
10946;BME280;5525;42.648;23.368;2022-12-11T06:47:37;92725.28;;;15.82;76.00
10946;BME280;5525;42.648;23.368;2022-12-11T06:50:06;92713.00;;;16.04;77.32
10946;BME280;5525;42.648;23.368;2022-12-11T06:52:35;92695.97;;;15.96;78.83
10946;BME280;5525;42.648;23.368;2022-12-11T06:55:07;92696.88;;;15.83;76.54
10946;BME280;5525;42.648;23.368;2022-12-11T06:57:35;92702.59;;;15.95;75.31
10946;BME280;5525;42.648;23.368;2022-12-11T07:00:07;92695.22;;;15.92;76.04
10946;BME280;5525;42.648;23.368;2022-12-11T07:02:40;92685.56;;;15.88;77.08
10946;BME280;5525;42.648;23.368;2022-12-11T07:05:11;92694.53;;;15.85;77.62
10946;BME280;5525;42.648;23.368;2022-12-11T07:07:47;92693.63;;;15.95;77.62
10946;BME280;5525;42.648;23.368;2022-12-11T07:10:38;92701.66;;;16.09;79.32
10946;BME280;5525;42.648;23.368;2022-12-11T07:13:10;92729.19;;;16.18;81.20
10946;BME280;5525;42.648;23.368;2022-12-11T07:16:16;92757.84;;;16.29;77.38
10946;BME280;5525;42.648;23.368;2022-12-11T07:18:50;92737.97;;;16.32;81.34
10946;BME280;5525;42.648;23.368;2022-12-11T07:21:21;92743.94;;;16.20;84.22
10946;BME280;5525;42.648;23.368;2022-12-11T07:23:58;92769.63;;;16.19;82.96
10946;BME280;5525;42.648;23.368;2022-12-11T07:26:35;92744.16;;;15.99;82.42
10946;BME280;5525;42.648;23.368;2022-12-11T07:29:06;92717.63;;;16.07;78.43
10946;BME280;5525;42.648;23.368;2022-12-11T07:31:49;92767.53;;;16.34;79.47
10946;BME280;5525;42.648;23.368;2022-12-11T07:34:22;92734.34;;;16.09;80.88
10946;BME280;5525;42.648;23.368;2022-12-11T07:37:13;92774.25;;;16.22;84.58
10946;BME280;5525;42.648;23.368;2022-12-11T07:40:03;92765.47;;;16.08;85.03
10946;BME280;5525;42.648;23.368;2022-12-11T07:43:05;92795.28;;;16.22;84.60
10946;BME280;5525;42.648;23.368;2022-12-11T07:45:46;92754.72;;;15.90;85.10
10946;BME280;5525;42.648;23.368;2022-12-11T07:48:35;92806.50;;;16.27;83.32
10946;BME280;5525;42.648;23.368;2022-12-11T07:51:10;92772.22;;;15.93;81.56
10946;BME280;5525;42.648;23.368;2022-12-11T07:53:49;92741.72;;;15.68;82.42
10946;BME280;5525;42.648;23.368;2022-12-11T07:56:29;92784.16;;;16.02;80.71
10946;BME280;5525;42.648;23.368;2022-12-11T07:58:58;92736.56;;;15.80;80.03
10946;BME280;5525;42.648;23.368;2022-12-11T08:01:27;92781.81;;;16.04;80.02
10946;BME280;5525;42.648;23.368;2022-12-11T08:03:59;92776.75;;;16.06;80.03
10946;BME280;5525;42.648;23.368;2022-12-11T08:06:31;92817.34;;;16.34;80.82
10946;BME280;5525;42.648;23.368;2022-12-11T08:09:08;92764.41;;;15.95;81.22
10946;BME280;5525;42.648;23.368;2022-12-11T08:11:42;92814.75;;;16.20;81.99
10946;BME280;5525;42.648;23.368;2022-12-11T08:14:14;92808.50;;;16.23;83.91
10946;BME280;5525;42.648;23.368;2022-12-11T08:16:52;92783.09;;;15.42;88.57
10946;BME280;5525;42.648;23.368;2022-12-11T08:19:33;92788.38;;;15.66;89.58
10946;BME280;5525;42.648;23.368;2022-12-11T08:22:08;92768.22;;;15.57;89.15
10946;BME280;5525;42.648;23.368;2022-12-11T08:24:39;92760.28;;;15.76;87.67
10946;BME280;5525;42.648;23.368;2022-12-11T08:27:13;92801.22;;;16.10;89.04
10946;BME280;5525;42.648;23.368;2022-12-11T08:29:45;92741.50;;;15.92;85.88
10946;BME280;5525;42.648;23.368;2022-12-11T08:32:27;92759.25;;;16.07;83.65
10946;BME280;5525;42.648;23.368;2022-12-11T08:35:00;92758.06;;;16.08;85.61
10946;BME280;5525;42.648;23.368;2022-12-11T08:37:29;92745.22;;;16.09;82.27
10946;BME280;5525;42.648;23.368;2022-12-11T08:39:57;92818.31;;;16.54;82.01
10946;BME280;5525;42.648;23.368;2022-12-11T08:42:26;92807.13;;;16.45;83.09
10946;BME280;5525;42.648;23.368;2022-12-11T08:45:03;92808.38;;;16.37;82.99
10946;BME280;5525;42.648;23.368;2022-12-11T08:47:37;92744.81;;;16.10;84.21
10946;BME280;5525;42.648;23.368;2022-12-11T08:50:16;92746.69;;;15.76;90.15
10946;BME280;5525;42.648;23.368;2022-12-11T08:52:45;92757.69;;;15.04;97.51
10946;BME280;5525;42.648;23.368;2022-12-11T08:55:17;92773.66;;;14.91;96.85
10946;BME280;5525;42.648;23.368;2022-12-11T08:57:57;92804.56;;;15.22;94.88
10946;BME280;5525;42.648;23.368;2022-12-11T09:00:54;92764.47;;;15.44;94.19
10946;BME280;5525;42.648;23.368;2022-12-11T09:03:23;92759.97;;;15.67;92.89
10946;BME280;5525;42.648;23.368;2022-12-11T09:05:52;92762.19;;;15.83;91.64
10946;BME280;5525;42.648;23.368;2022-12-11T09:08:24;92799.47;;;16.30;90.42
10946;BME280;5525;42.648;23.368;2022-12-11T09:10:52;92732.81;;;16.04;87.04
10946;BME280;5525;42.648;23.368;2022-12-11T09:13:20;92757.16;;;16.22;85.82
10946;BME280;5525;42.648;23.368;2022-12-11T09:15:48;92740.63;;;16.39;85.87
10946;BME280;5525;42.648;23.368;2022-12-11T09:18:16;92773.00;;;16.71;84.16
10946;BME280;5525;42.648;23.368;2022-12-11T09:20:45;92781.97;;;16.68;86.11
10946;BME280;5525;42.648;23.368;2022-12-11T09:23:15;92756.84;;;16.53;87.61
10946;BME280;5525;42.648;23.368;2022-12-11T09:25:44;92787.44;;;16.68;87.73
10946;BME280;5525;42.648;23.368;2022-12-11T09:28:26;92755.72;;;16.47;86.48
10946;BME280;5525;42.648;23.368;2022-12-11T09:31:10;92755.41;;;16.42;85.21
10946;BME280;5525;42.648;23.368;2022-12-11T09:33:44;92788.72;;;16.56;84.59
10946;BME280;5525;42.648;23.368;2022-12-11T09:36:18;92754.03;;;16.23;87.34
10946;BME280;5525;42.648;23.368;2022-12-11T09:39:02;92708.88;;;15.89;84.49
10946;BME280;5525;42.648;23.368;2022-12-11T09:41:39;92752.13;;;16.20;84.09
10946;BME280;5525;42.648;23.368;2022-12-11T09:44:31;92741.41;;;16.03;84.98
10946;BME280;5525;42.648;23.368;2022-12-11T09:47:13;92739.13;;;16.31;83.54
10946;BME280;5525;42.648;23.368;2022-12-11T09:49:45;92709.63;;;15.93;84.65
10946;BME280;5525;42.648;23.368;2022-12-11T09:52:31;92734.66;;;15.74;88.57
10946;BME280;5525;42.648;23.368;2022-12-11T09:55:15;92781.13;;;15.97;89.97
10946;BME280;5525;42.648;23.368;2022-12-11T09:57:55;92779.59;;;15.96;89.14
10946;BME280;5525;42.648;23.368;2022-12-11T10:00:31;92753.56;;;15.91;93.44
10946;BME280;5525;42.648;23.368;2022-12-11T10:03:26;92701.47;;;15.49;94.42
10946;BME280;5525;42.648;23.368;2022-12-11T10:06:02;92736.31;;;15.61;95.75
10946;BME280;5525;42.648;23.368;2022-12-11T10:08:38;92737.50;;;15.60;88.43
10946;BME280;5525;42.648;23.368;2022-12-11T10:11:38;92767.13;;;15.95;90.88
10946;BME280;5525;42.648;23.368;2022-12-11T10:14:16;92749.88;;;15.68;93.26
10946;BME280;5525;42.648;23.368;2022-12-11T10:16:51;92759.97;;;15.67;97.11
10946;BME280;5525;42.648;23.368;2022-12-11T10:19:25;92711.16;;;14.91;100.00
10946;BME280;5525;42.648;23.368;2022-12-11T10:21:58;92708.78;;;15.00;100.00
10946;BME280;5525;42.648;23.368;2022-12-11T10:24:33;92766.97;;;15.10;100.00
10946;BME280;5525;42.648;23.368;2022-12-11T10:27:20;92727.16;;;14.79;100.00
10946;BME280;5525;42.648;23.368;2022-12-11T10:29:54;92720.47;;;13.94;100.00
10946;BME280;5525;42.648;23.368;2022-12-11T10:32:36;92772.00;;;14.08;100.00
10946;BME280;5525;42.648;23.368;2022-12-11T10:35:08;92700.78;;;13.58;100.00
10946;BME280;5525;42.648;23.368;2022-12-11T10:37:55;92772.81;;;13.91;100.00
10946;BME280;5525;42.648;23.368;2022-12-11T10:40:30;92730.97;;;13.88;100.00
10946;BME280;5525;42.648;23.368;2022-12-11T10:43:17;92760.34;;;14.28;100.00
10946;BME280;5525;42.648;23.368;2022-12-11T10:45:52;92745.78;;;14.80;100.00
10946;BME280;5525;42.648;23.368;2022-12-11T10:48:31;92751.97;;;15.50;100.00
10946;BME280;5525;42.648;23.368;2022-12-11T10:51:03;92671.19;;;15.47;100.00
10946;BME280;5525;42.648;23.368;2022-12-11T10:53:37;92682.16;;;15.77;100.00
10946;BME280;5525;42.648;23.368;2022-12-11T10:56:09;92742.63;;;16.35;100.00
10946;BME280;5525;42.648;23.368;2022-12-11T10:58:51;92695.56;;;16.31;100.00
10946;BME280;5525;42.648;23.368;2022-12-11T11:01:33;92732.69;;;16.85;99.53
10946;BME280;5525;42.648;23.368;2022-12-11T11:04:14;92672.06;;;16.78;94.30
10946;BME280;5525;42.648;23.368;2022-12-11T11:07:10;92709.00;;;17.09;88.28
10946;BME280;5525;42.648;23.368;2022-12-11T11:09:48;92718.72;;;17.10;87.07
10946;BME280;5525;42.648;23.368;2022-12-11T11:12:37;92706.38;;;17.02;91.19
10946;BME280;5525;42.648;23.368;2022-12-11T11:15:27;92701.03;;;16.95;89.89
10946;BME280;5525;42.648;23.368;2022-12-11T11:17:57;92717.41;;;16.92;86.21
10946;BME280;5525;42.648;23.368;2022-12-11T11:20:35;92712.38;;;16.90;84.00
10946;BME280;5525;42.648;23.368;2022-12-11T11:23:12;92704.44;;;16.72;84.73
10946;BME280;5525;42.648;23.368;2022-12-11T11:25:54;92665.94;;;16.37;88.20
10946;BME280;5525;42.648;23.368;2022-12-11T11:28:39;92727.50;;;16.31;92.48
10946;BME280;5525;42.648;23.368;2022-12-11T11:31:16;92684.84;;;15.40;97.16
10946;BME280;5525;42.648;23.368;2022-12-11T11:33:54;92648.81;;;15.25;100.00
10946;BME280;5525;42.648;23.368;2022-12-11T11:36:29;92653.66;;;15.51;98.94
10946;BME280;5525;42.648;23.368;2022-12-11T11:39:19;92648.13;;;15.62;96.24
10946;BME280;5525;42.648;23.368;2022-12-11T11:41:59;92678.25;;;15.78;98.33
10946;BME280;5525;42.648;23.368;2022-12-11T11:44:39;92664.91;;;15.53;100.00
10946;BME280;5525;42.648;23.368;2022-12-11T11:47:26;92721.53;;;15.65;100.00
10946;BME280;5525;42.648;23.368;2022-12-11T11:50:11;92717.03;;;15.45;100.00
10946;BME280;5525;42.648;23.368;2022-12-11T11:52:49;92648.16;;;15.07;100.00
10946;BME280;5525;42.648;23.368;2022-12-11T11:55:30;92654.38;;;15.07;100.00
10946;BME280;5525;42.648;23.368;2022-12-11T11:58:12;92693.00;;;15.40;100.00
10946;BME280;5525;42.648;23.368;2022-12-11T12:00:48;92692.41;;;15.62;100.00
10946;BME280;5525;42.648;23.368;2022-12-11T12:03:24;92696.66;;;15.67;100.00
10946;BME280;5525;42.648;23.368;2022-12-11T12:06:06;92696.19;;;15.75;100.00
10946;BME280;5525;42.648;23.368;2022-12-11T12:08:46;92687.34;;;15.61;100.00
10946;BME280;5525;42.648;23.368;2022-12-11T12:11:28;92629.03;;;15.21;100.00
10946;BME280;5525;42.648;23.368;2022-12-11T12:16:58;92673.56;;;15.38;100.00
10946;BME280;5525;42.648;23.368;2022-12-11T12:19:44;92658.63;;;15.08;100.00
10946;BME280;5525;42.648;23.368;2022-12-11T12:22:33;92681.91;;;15.13;100.00
10946;BME280;5525;42.648;23.368;2022-12-11T12:25:15;92694.72;;;15.12;100.00
10946;BME280;5525;42.648;23.368;2022-12-11T12:27:52;92655.19;;;15.01;100.00
10946;BME280;5525;42.648;23.368;2022-12-11T12:30:23;92675.66;;;15.16;100.00
10946;BME280;5525;42.648;23.368;2022-12-11T12:33:03;92685.13;;;14.97;100.00
10946;BME280;5525;42.648;23.368;2022-12-11T12:35:46;92685.25;;;14.76;100.00
10946;BME280;5525;42.648;23.368;2022-12-11T12:38:21;92715.59;;;14.68;100.00
10946;BME280;5525;42.648;23.368;2022-12-11T12:40:58;92720.09;;;13.99;100.00
10946;BME280;5525;42.648;23.368;2022-12-11T12:43:53;92680.59;;;12.75;100.00
10946;BME280;5525;42.648;23.368;2022-12-11T12:46:35;92743.22;;;12.59;100.00
10946;BME280;5525;42.648;23.368;2022-12-11T12:49:11;92726.34;;;11.94;100.00
10946;BME280;5525;42.648;23.368;2022-12-11T12:51:46;92733.41;;;11.55;100.00
10946;BME280;5525;42.648;23.368;2022-12-11T12:54:18;92753.22;;;11.19;100.00
10946;BME280;5525;42.648;23.368;2022-12-11T12:56:55;92707.75;;;10.41;100.00
10946;BME280;5525;42.648;23.368;2022-12-11T12:59:44;92776.75;;;10.12;100.00
10946;BME280;5525;42.648;23.368;2022-12-11T13:03:17;92803.69;;;9.34;100.00
10946;BME280;5525;42.648;23.368;2022-12-11T13:06:02;92804.69;;;9.26;100.00
10946;BME280;5525;42.648;23.368;2022-12-11T13:08:38;92779.66;;;8.99;100.00
10946;BME280;5525;42.648;23.368;2022-12-11T13:11:20;92804.72;;;9.03;100.00
10946;BME280;5525;42.648;23.368;2022-12-11T13:14:24;92813.31;;;8.48;100.00
10946;BME280;5525;42.648;23.368;2022-12-11T13:17:06;92821.75;;;8.46;100.00
10946;BME280;5525;42.648;23.368;2022-12-11T13:19:34;92828.75;;;8.32;100.00
10946;BME280;5525;42.648;23.368;2022-12-11T13:22:16;92853.53;;;8.06;100.00
10946;BME280;5525;42.648;23.368;2022-12-11T13:25:01;92845.56;;;7.60;100.00
10946;BME280;5525;42.648;23.368;2022-12-11T13:27:51;92755.00;;;6.75;100.00
10946;BME280;5525;42.648;23.368;2022-12-11T13:30:25;92862.06;;;7.27;100.00
10946;BME280;5525;42.648;23.368;2022-12-11T13:33:01;92845.34;;;6.87;100.00
10946;BME280;5525;42.648;23.368;2022-12-11T13:35:31;92871.75;;;7.01;100.00
10946;BME280;5525;42.648;23.368;2022-12-11T13:38:05;92842.06;;;6.66;100.00
10946;BME280;5525;42.648;23.368;2022-12-11T13:40:40;92821.63;;;6.46;100.00